Time;durP1;ratioP1;P1;durP2;ratioP2;P2;SDS_P1;SDS_P2;PMS_P1;PMS_P2;Temp;Humidity;BMP_temperature;BMP_pressure;BME280_temperature;BME280_humidity;BME280_pressure;Samples;Min_cycle;Max_cycle;Signal;HPM_P1;HPM_P2
2022/09/19 00:01:48;;;;;;;9.75;2.78;;;;;;;6.63;100.00;101664.72;5134899;27;20033;-87
2022/09/19 00:04:19;;;;;;;19.80;2.35;;;;;;;6.60;100.00;101665.06;5134264;27;20031;-88
2022/09/19 00:06:48;;;;;;;19.25;2.15;;;;;;;6.60;100.00;101665.06;5135621;27;20064;-88
2022/09/19 00:09:20;;;;;;;14.80;2.70;;;;;;;6.58;100.00;101664.38;5134137;27;20031;-88
2022/09/19 00:11:48;;;;;;;19.60;2.60;;;;;;;6.60;100.00;101666.91;5133970;27;20539;-88
2022/09/19 00:14:16;;;;;;;22.45;2.90;;;;;;;6.57;100.00;101662.72;5133877;27;20035;-86
2022/09/19 00:16:44;;;;;;;12.43;2.78;;;;;;;6.53;100.00;101664.03;5134187;27;20035;-86
2022/09/19 00:19:12;;;;;;;12.25;2.38;;;;;;;6.49;100.00;101658.13;5117137;27;20027;-85
2022/09/19 00:21:40;;;;;;;16.08;2.55;;;;;;;6.52;100.00;101672.31;5134222;27;20027;-85
2022/09/19 00:27:04;;;;;;;25.50;3.25;;;;;;;6.45;100.00;101666.72;5135471;27;20041;-85
2022/09/19 00:29:31;;;;;;;18.85;2.15;;;;;;;6.42;100.00;101661.69;5133815;27;20133;-85
2022/09/19 00:31:56;;;;;;;14.73;2.45;;;;;;;6.42;100.00;101664.38;5133906;27;20034;-86
2022/09/19 00:34:23;;;;;;;16.55;2.35;;;;;;;6.39;100.00;101662.88;5117408;27;20031;-86
2022/09/19 00:36:48;;;;;;;13.73;2.53;;;;;;;6.37;100.00;101661.34;5134042;27;20463;-85
2022/09/19 00:39:17;;;;;;;17.33;3.05;;;;;;;6.34;100.00;101670.59;5134160;27;20027;-85
2022/09/19 00:41:43;;;;;;;20.67;2.42;;;;;;;6.31;100.00;101676.34;5133843;27;20027;-85
2022/09/19 00:44:26;;;;;;;14.30;2.20;;;;;;;6.30;100.00;101680.91;5133879;27;20096;-86
2022/09/19 00:47:02;;;;;;;10.95;2.38;;;;;;;6.31;100.00;101676.34;5134948;27;20024;-86
2022/09/19 00:49:31;;;;;;;13.63;2.42;;;;;;;6.32;100.00;101667.25;5134042;27;20360;-86
2022/09/19 00:52:00;;;;;;;21.77;2.17;;;;;;;6.31;100.00;101679.88;5134975;27;20107;-86
2022/09/19 00:54:36;;;;;;;16.97;2.10;;;;;;;6.33;100.00;101671.59;5133596;27;20126;-86
2022/09/19 00:57:03;;;;;;;15.07;2.70;;;;;;;6.36;100.00;101676.66;5134881;27;20033;-86
2022/09/19 00:59:34;;;;;;;19.05;2.67;;;;;;;6.32;100.00;101662.69;5134114;27;20032;-86
2022/09/19 01:02:02;;;;;;;14.45;2.40;;;;;;;6.29;100.00;101671.13;5134886;27;20463;-86
2022/09/19 01:04:30;;;;;;;14.65;1.98;;;;;;;6.29;100.00;101673.81;5133742;27;20023;-85
2022/09/19 01:07:17;;;;;;;19.20;2.33;;;;;;;6.26;100.00;101673.28;5100093;27;20481;-85
2022/09/19 01:10:09;;;;;;;9.85;1.95;;;;;;;6.24;100.00;101686.91;5133717;28;20493;-86
2022/09/19 01:12:51;;;;;;;14.48;2.10;;;;;;;6.25;100.00;101679.69;5133511;28;20031;-86
2022/09/19 01:15:28;;;;;;;13.07;2.33;;;;;;;6.22;100.00;101680.88;5133447;27;20031;-85
2022/09/19 01:17:59;;;;;;;20.30;2.25;;;;;;;6.19;100.00;101673.13;5138343;27;20076;-85
2022/09/19 01:20:56;;;;;;;18.50;2.00;;;;;;;6.25;100.00;101685.09;5120866;27;20032;-86
2022/09/19 01:23:57;;;;;;;24.73;2.50;;;;;;;6.21;100.00;101681.88;5138576;27;20054;-86
2022/09/19 01:26:34;;;;;;;11.75;2.00;;;;;;;6.25;100.00;101690.47;5105726;27;20478;-86
2022/09/19 01:29:10;;;;;;;15.43;2.22;;;;;;;6.19;100.00;101686.59;5137559;27;20039;-85
2022/09/19 01:31:44;;;;;;;17.50;2.05;;;;;;;6.18;100.00;101698.38;5138386;27;20024;-85
2022/09/19 01:34:19;;;;;;;24.43;2.57;;;;;;;6.15;100.00;101702.22;5138264;27;20037;-86
2022/09/19 01:36:50;;;;;;;17.67;2.00;;;;;;;6.13;100.00;101696.19;5137695;27;20015;-86
2022/09/19 01:39:21;;;;;;;17.20;2.47;;;;;;;6.14;100.00;101703.25;5137660;27;20066;-86
2022/09/19 01:41:51;;;;;;;19.77;2.47;;;;;;;6.13;100.00;101706.13;5139189;27;20085;-86
2022/09/19 01:44:22;;;;;;;18.13;2.30;;;;;;;6.12;100.00;101701.72;5136947;27;20046;-86
2022/09/19 01:47:16;;;;;;;16.97;2.27;;;;;;;6.13;100.00;101696.19;5138103;27;20062;-86
2022/09/19 01:50:18;;;;;;;15.15;2.53;;;;;;;6.11;100.00;101700.03;5137733;27;20482;-86
2022/09/19 01:53:01;;;;;;;13.40;2.25;;;;;;;6.11;100.00;101703.59;5137417;27;20055;-86
2022/09/19 01:55:49;;;;;;;19.75;2.80;;;;;;;6.10;100.00;101704.59;5137410;27;20069;-85
2022/09/19 01:58:46;;;;;;;14.95;2.35;;;;;;;6.08;100.00;101694.97;5137852;27;20042;-86
2022/09/19 02:01:26;;;;;;;21.43;2.43;;;;;;;6.09;100.00;101705.59;5136136;27;20039;-86
2022/09/19 02:04:18;;;;;;;20.17;2.50;;;;;;;6.14;100.00;101705.97;5137122;27;20027;-86
2022/09/19 02:06:58;;;;;;;12.40;2.30;;;;;;;6.14;100.00;101702.41;5136810;27;20068;-85
2022/09/19 02:09:51;;;;;;;22.05;2.70;;;;;;;6.11;100.00;101700.91;5137079;27;20035;-86
2022/09/19 02:12:20;;;;;;;20.23;2.53;;;;;;;6.12;100.00;101704.44;5136755;27;20023;-86
2022/09/19 02:14:54;;;;;;;20.87;2.40;;;;;;;6.12;100.00;101702.56;5136648;27;20447;-86
2022/09/19 02:17:27;;;;;;;16.75;2.65;;;;;;;6.12;100.00;101696.34;5138504;27;20098;-86
2022/09/19 02:19:58;;;;;;;19.30;2.47;;;;;;;6.10;100.00;101701.91;5137422;27;20027;-85
2022/09/19 02:22:31;;;;;;;15.85;2.60;;;;;;;6.11;100.00;101700.03;5136822;27;20042;-86
2022/09/19 02:25:02;;;;;;;17.15;2.42;;;;;;;6.13;100.00;101708.81;5136407;27;20126;-86
2022/09/19 02:27:43;;;;;;;15.00;2.70;;;;;;;6.13;100.00;101712.34;5137910;27;20118;-86
2022/09/19 02:30:10;;;;;;;14.52;2.53;;;;;;;6.13;100.00;101712.34;5136676;27;20023;-85
2022/09/19 02:32:37;;;;;;;15.98;2.92;;;;;;;6.13;100.00;101717.72;5119774;27;20027;-86
2022/09/19 02:35:04;;;;;;;18.67;2.60;;;;;;;6.08;100.00;101719.22;5137007;27;20083;-86
2022/09/19 02:37:58;;;;;;;21.38;2.55;;;;;;;6.10;100.00;101714.53;5118858;27;20039;-86
2022/09/19 02:40:59;;;;;;;21.50;2.30;;;;;;;6.09;100.00;101721.75;5137081;27;20129;-86
2022/09/19 02:43:46;;;;;;;12.55;2.22;;;;;;;6.04;100.00;101718.72;5118014;27;20120;-86
2022/09/19 02:46:30;;;;;;;14.93;2.22;;;;;;;6.00;100.00;101724.63;5136360;27;20031;-86
2022/09/19 02:49:04;;;;;;;17.20;2.28;;;;;;;6.04;100.00;101734.03;5137373;27;20023;-86
2022/09/19 02:51:40;;;;;;;21.70;2.30;;;;;;;5.96;100.00;101726.75;5119059;27;20026;-86
2022/09/19 02:54:19;;;;;;;20.47;2.20;;;;;;;5.94;100.00;101729.59;5119336;27;20164;-86
2022/09/19 02:56:47;;;;;;;13.82;2.30;;;;;;;5.92;100.00;101722.69;5119166;27;20363;-86
2022/09/19 02:59:23;;;;;;;15.77;2.20;;;;;;;5.91;100.00;101721.84;5101549;27;20058;-86
2022/09/19 03:01:54;;;;;;;13.98;2.00;;;;;;;5.91;100.00;101721.84;5118277;27;20066;-86
2022/09/19 03:04:26;;;;;;;17.15;2.28;;;;;;;5.90;100.00;101724.72;5118770;27;20079;-85
2022/09/19 03:07:13;;;;;;;13.33;2.60;;;;;;;5.93;100.00;101727.91;5137506;27;20034;-86
2022/09/19 03:09:44;;;;;;;15.43;2.45;;;;;;;5.92;100.00;101730.75;5119317;27;20113;-86
2022/09/19 03:12:18;;;;;;;11.43;1.92;;;;;;;5.88;100.00;101732.94;5118738;27;20508;-86
2022/09/19 03:14:50;;;;;;;15.30;2.03;;;;;;;5.85;100.00;101722.50;5118566;27;20080;-86
2022/09/19 03:17:20;;;;;;;18.50;2.38;;;;;;;5.88;100.00;101729.44;5118307;27;20031;-86
2022/09/19 03:19:47;;;;;;;18.23;2.40;;;;;;;5.85;100.00;101727.88;5118578;27;20121;-86
2022/09/19 03:22:13;;;;;;;18.13;2.03;;;;;;;5.88;100.00;101732.13;5118438;27;20043;-86
2022/09/19 03:24:41;;;;;;;14.55;2.40;;;;;;;5.89;100.00;101729.25;5136158;27;20027;-86
2022/09/19 03:27:06;;;;;;;14.98;2.38;;;;;;;5.91;100.00;101726.41;5118068;27;20041;-86
2022/09/19 03:29:33;;;;;;;15.63;2.70;;;;;;;6.00;100.00;101733.53;5101092;27;20031;-86
2022/09/19 03:31:58;;;;;;;22.15;2.67;;;;;;;6.08;100.00;101728.19;5118779;27;20451;-86
2022/09/19 03:34:24;;;;;;;15.77;2.47;;;;;;;6.12;100.00;101725.97;5118399;27;20031;-86
2022/09/19 03:36:49;;;;;;;19.83;2.40;;;;;;;6.21;100.00;101735.75;5118746;27;20118;-86
2022/09/19 03:39:15;;;;;;;18.90;2.23;;;;;;;6.26;100.00;101741.53;5117571;27;20027;-86
2022/09/19 03:41:41;;;;;;;14.88;2.55;;;;;;;6.30;100.00;101733.94;5118054;27;20481;-86
2022/09/19 03:44:07;;;;;;;21.97;3.20;;;;;;;6.39;100.00;101738.34;5117689;27;20443;-86
2022/09/19 03:46:32;;;;;;;11.50;2.50;;;;;;;6.44;100.00;101736.00;5117884;27;20434;-86
2022/09/19 03:49:00;;;;;;;24.27;3.30;;;;;;;6.47;100.00;101738.34;5117845;27;20058;-86
2022/09/19 03:51:25;;;;;;;18.27;2.60;;;;;;;6.47;100.00;101735.66;5136361;27;20023;-86
2022/09/19 03:53:50;;;;;;;21.10;2.65;;;;;;;6.44;100.00;101725.22;5100683;27;20027;-86
2022/09/19 03:56:16;;;;;;;18.33;2.38;;;;;;;6.47;100.00;101730.25;5083719;27;20118;-85
2022/09/19 03:58:43;;;;;;;22.87;2.73;;;;;;;6.49;100.00;101732.78;5135810;27;20087;-86
2022/09/19 04:01:14;;;;;;;18.35;2.78;;;;;;;6.50;100.00;101726.41;5092153;27;20394;-85
2022/09/19 04:03:39;;;;;;;21.55;3.00;;;;;;;6.53;100.00;101730.63;5135797;27;20030;-87
2022/09/19 04:06:05;;;;;;;14.23;2.53;;;;;;;6.53;100.00;101734.16;5117804;27;20023;-85
2022/09/19 04:08:31;;;;;;;22.05;2.33;;;;;;;6.55;100.00;101740.19;5117143;27;20072;-86
2022/09/19 04:10:58;;;;;;;14.88;2.70;;;;;;;6.55;100.00;101736.69;5117153;27;20108;-86
2022/09/19 04:13:23;;;;;;;25.92;3.05;;;;;;;6.59;100.00;101743.44;5117385;27;20059;-86
2022/09/19 04:15:50;;;;;;;20.08;2.38;;;;;;;6.62;100.00;101751.19;5116839;27;20050;-86
2022/09/19 04:18:17;;;;;;;19.35;2.53;;;;;;;6.64;100.00;101751.84;5135490;27;20034;-86
2022/09/19 04:20:42;;;;;;;16.90;2.70;;;;;;;6.68;100.00;101754.03;5099724;27;20043;-86
2022/09/19 04:23:08;;;;;;;24.17;2.95;;;;;;;6.70;100.00;101753.03;5100088;27;20033;-86
2022/09/19 04:25:35;;;;;;;15.73;2.40;;;;;;;6.72;100.00;101751.00;5117118;27;20118;-86
2022/09/19 04:28:03;;;;;;;17.67;2.90;;;;;;;6.73;100.00;101755.41;5117580;27;20411;-85
2022/09/19 04:30:31;;;;;;;17.13;2.97;;;;;;;6.72;100.00;101756.41;5116570;27;20025;-86
2022/09/19 04:32:58;;;;;;;21.23;3.00;;;;;;;6.76;100.00;101755.06;5099985;27;20487;-86
2022/09/19 04:35:23;;;;;;;21.15;2.60;;;;;;;6.79;100.00;101752.88;5099628;27;20027;-86
2022/09/19 04:37:49;;;;;;;17.05;2.78;;;;;;;6.86;100.00;101755.72;5116908;27;20110;-86
2022/09/19 04:40:15;;;;;;;20.90;2.80;;;;;;;6.90;100.00;101761.66;5116650;27;20023;-86
2022/09/19 04:42:41;;;;;;;13.70;2.40;;;;;;;6.92;100.00;101756.91;5116860;27;20023;-86
2022/09/19 04:45:07;;;;;;;15.40;2.22;;;;;;;6.89;100.00;101760.78;5134926;27;20088;-86
2022/09/19 04:47:38;;;;;;;16.90;2.53;;;;;;;6.92;100.00;101763.16;5116572;27;20043;-86
2022/09/19 04:50:07;;;;;;;21.83;2.65;;;;;;;6.94;100.00;101762.97;5116437;27;20027;-86
2022/09/19 04:52:34;;;;;;;15.98;2.50;;;;;;;6.94;100.00;101771.06;5134954;27;20023;-86
2022/09/19 04:55:03;;;;;;;13.27;2.30;;;;;;;6.94;100.00;101766.53;5116560;27;20084;-86
2022/09/19 04:57:28;;;;;;;18.42;2.60;;;;;;;6.94;100.00;101773.75;5116399;27;20467;-86
2022/09/19 04:59:57;;;;;;;14.60;2.57;;;;;;;6.96;100.00;101778.00;5118156;27;20031;-86
2022/09/19 05:02:22;;;;;;;17.70;2.58;;;;;;;6.96;100.00;101771.75;5137939;27;20485;-86
2022/09/19 05:04:47;;;;;;;18.33;3.43;;;;;;;7.00;100.00;101776.66;5137068;27;20039;-86
2022/09/19 05:07:14;;;;;;;17.73;3.40;;;;;;;7.04;100.00;101774.44;5137814;27;20033;-86
2022/09/19 05:09:41;;;;;;;14.00;2.50;;;;;;;7.08;100.00;101783.06;5120716;27;20026;-85
2022/09/19 05:12:10;;;;;;;11.77;2.70;;;;;;;7.10;100.00;101775.63;5136601;27;20030;-86
2022/09/19 05:14:36;;;;;;;15.55;2.40;;;;;;;7.17;100.00;101780.16;5120186;27;20091;-87
2022/09/19 05:17:12;;;;;;;19.80;2.88;;;;;;;7.21;100.00;101778.00;5136708;27;20030;-87
2022/09/19 05:19:38;;;;;;;14.27;2.90;;;;;;;7.24;100.00;101780.34;5120890;27;20062;-87
2022/09/19 05:22:03;;;;;;;24.93;3.37;;;;;;;7.27;100.00;101784.56;5136860;27;20034;-87
2022/09/19 05:24:29;;;;;;;17.63;2.70;;;;;;;7.34;100.00;101786.41;5136690;27;20560;-86
2022/09/19 05:26:56;;;;;;;26.65;3.10;;;;;;;7.35;100.00;101785.41;5119621;27;20030;-85
2022/09/19 05:29:22;;;;;;;20.53;3.03;;;;;;;7.40;100.00;101790.28;5136753;27;20469;-85
2022/09/19 05:31:47;;;;;;;18.50;3.25;;;;;;;7.41;100.00;101791.13;5119717;27;20108;-85
2022/09/19 05:34:13;;;;;;;19.43;3.30;;;;;;;7.45;100.00;101798.69;5119706;27;20029;-85
2022/09/19 05:36:39;;;;;;;25.52;3.30;;;;;;;7.47;100.00;101799.38;5136612;27;20019;-85
2022/09/19 05:39:05;;;;;;;16.13;3.00;;;;;;;7.48;100.00;101792.13;5136759;27;20070;-85
2022/09/19 05:41:30;;;;;;;15.32;2.85;;;;;;;7.51;100.00;101805.28;5119625;27;20069;-84
2022/09/19 05:43:56;;;;;;;22.37;3.13;;;;;;;7.52;100.00;101797.00;5136270;27;20022;-84
2022/09/19 05:46:21;;;;;;;18.00;2.70;;;;;;;7.54;100.00;101800.38;5154707;27;20072;-84
2022/09/19 05:48:48;;;;;;;16.08;2.78;;;;;;;7.61;100.00;101807.78;5119358;27;20027;-84
2022/09/19 05:51:13;;;;;;;13.97;2.90;;;;;;;7.62;100.00;101802.22;5136455;27;20091;-84
2022/09/19 05:53:55;;;;;;;15.32;2.70;;;;;;;7.70;100.00;101814.84;5154701;27;20111;-85
2022/09/19 05:56:23;;;;;;;19.20;2.83;;;;;;;7.67;100.00;101812.50;5122010;27;20033;-85
2022/09/19 05:58:52;;;;;;;19.90;3.30;;;;;;;7.65;100.00;101812.69;5120446;27;20034;-84
2022/09/19 06:01:22;;;;;;;20.58;3.15;;;;;;;7.64;100.00;101819.09;5136708;27;20057;-84
2022/09/19 06:03:48;;;;;;;21.25;3.13;;;;;;;7.60;100.00;101806.09;5158173;27;20026;-84
2022/09/19 06:06:18;;;;;;;19.27;3.10;;;;;;;7.59;100.00;101813.38;5139947;27;20015;-84
2022/09/19 06:08:45;;;;;;;16.52;2.80;;;;;;;7.62;100.00;101814.88;5140041;27;20031;-84
2022/09/19 06:11:10;;;;;;;20.55;3.63;;;;;;;7.71;100.00;101819.25;5139944;27;20470;-84
2022/09/19 06:16:20;;;;;;;19.33;4.03;;;;;;;7.87;100.00;101821.91;5158264;27;20030;-84
2022/09/19 06:18:47;;;;;;;18.10;2.93;;;;;;;7.95;100.00;101821.03;5122735;27;20023;-84
2022/09/19 06:21:13;;;;;;;17.88;3.50;;;;;;;8.05;100.00;101831.66;5139704;27;20485;-84
2022/09/19 06:23:42;;;;;;;14.10;3.10;;;;;;;8.21;100.00;101815.34;5123063;27;20023;-85
2022/09/19 06:26:09;;;;;;;27.30;3.60;;;;;;;8.32;100.00;101819.53;5139768;27;20031;-84
2022/09/19 06:28:34;;;;;;;18.70;3.73;;;;;;;8.45;100.00;101831.69;5122648;27;20039;-84
2022/09/19 06:31:03;;;;;;;18.30;3.72;;;;;;;8.50;100.00;101830.09;5139667;27;20386;-84
2022/09/19 06:33:30;;;;;;;15.43;3.00;;;;;;;8.52;100.00;101829.91;5158071;27;20126;-84
2022/09/19 06:35:58;;;;;;;25.53;3.70;;;;;;;8.48;100.00;101837.56;5122146;27;20087;-84
2022/09/19 06:38:24;;;;;;;11.93;2.95;;;;;;;8.48;100.00;101831.31;5122597;27;20023;-84
2022/09/19 06:40:50;;;;;;;19.48;3.03;;;;;;;8.49;100.00;101833.84;5139346;27;20070;-84
2022/09/19 06:43:15;;;;;;;12.65;2.75;;;;;;;8.50;100.00;101840.09;5139575;27;20038;-84
2022/09/19 06:45:41;;;;;;;20.23;3.57;;;;;;;8.51;100.00;101841.78;5139056;27;20509;-84
2022/09/19 06:48:09;;;;;;;16.80;2.73;;;;;;;8.64;100.00;101835.81;5139212;27;20027;-84
2022/09/19 06:50:35;;;;;;;21.55;3.00;;;;;;;8.78;100.00;101857.53;5138924;27;20034;-84
2022/09/19 06:53:01;;;;;;;16.73;3.78;;;;;;;8.95;100.00;101855.53;5139556;27;20034;-83
2022/09/19 06:55:28;;;;;;;19.00;3.50;;;;;;;9.04;100.00;101847.38;5138554;27;20031;-84
2022/09/19 06:57:58;;;;;;;19.33;4.07;;;;;;;9.08;100.00;101862.19;5139290;27;20035;-84
2022/09/19 07:00:25;;;;;;;21.73;4.00;;;;;;;9.17;100.00;101866.56;5139167;27;20081;-84
2022/09/19 07:03:03;;;;;;;16.50;2.90;;;;;;;9.23;100.00;101868.53;5139156;27;20035;-84
2022/09/19 07:05:34;;;;;;;15.50;2.58;;;;;;;9.26;100.00;101861.91;5138894;27;20118;-84
2022/09/19 07:08:02;;;;;;;12.73;2.17;;;;;;;9.30;100.00;101865.91;5139325;27;20033;-86
2022/09/19 07:10:27;;;;;;;18.60;3.10;;;;;;;9.41;100.00;101870.09;5139242;27;20037;-86
2022/09/19 07:12:59;;;;;;;25.03;2.20;;;;;;;9.49;100.00;101875.41;5156913;27;20394;-85
2022/09/19 07:15:24;;;;;;;13.77;2.53;;;;;;;9.62;100.00;101877.50;5138551;27;20027;-85
2022/09/19 07:17:53;;;;;;;10.40;2.67;;;;;;;9.71;100.00;101883.69;5138488;27;20026;-85
2022/09/19 07:20:19;;;;;;;19.40;2.75;;;;;;;9.83;100.00;101887.63;5138757;27;20037;-85
2022/09/19 07:22:45;;;;;;;12.33;2.20;;;;;;;9.90;100.00;101885.03;5138939;27;20034;-85
2022/09/19 07:25:10;;;;;;;17.85;2.55;;;;;;;9.96;100.00;101878.84;5139201;27;20415;-85
2022/09/19 07:27:36;;;;;;;15.87;2.30;;;;;;;10.07;100.00;101888.38;5138438;27;20113;-85
2022/09/19 07:30:03;;;;;;;21.10;2.33;;;;;;;10.27;100.00;101881.38;5156807;27;20421;-85
2022/09/19 07:33:02;;;;;;;14.75;2.20;;;;;;;10.48;100.00;101882.50;5138022;27;20030;-85
2022/09/19 07:35:30;;;;;;;12.57;2.40;;;;;;;10.76;100.00;101900.78;5138129;27;20031;-85
2022/09/19 07:37:56;;;;;;;18.15;3.38;;;;;;;10.96;100.00;101895.59;5121766;27;20029;-85
2022/09/19 07:40:22;;;;;;;10.60;2.80;;;;;;;11.01;100.00;101899.44;5138474;27;20366;-85
2022/09/19 07:42:50;;;;;;;16.92;2.40;;;;;;;11.14;100.00;101900.59;5121089;27;20113;-85
2022/09/19 07:45:16;;;;;;;13.10;2.30;;;;;;;11.27;100.00;101911.59;5137933;27;20124;-85
2022/09/19 07:47:46;;;;;;;11.40;1.88;;;;;;;11.43;100.00;101906.91;5156405;27;20034;-84
2022/09/19 07:50:16;;;;;;;13.70;1.50;;;;;;;11.63;100.00;101910.66;5138442;27;20027;-85
2022/09/19 07:52:46;;;;;;;14.18;1.75;;;;;;;11.76;100.00;101910.75;5138988;27;20037;-85
2022/09/19 07:55:12;;;;;;;13.68;2.25;;;;;;;11.89;100.00;101909.19;5121997;27;20027;-85
2022/09/19 07:57:51;;;;;;;15.98;2.10;;;;;;;12.03;100.00;101915.56;5138048;27;20037;-85
2022/09/19 08:00:16;;;;;;;9.43;2.17;;;;;;;12.16;100.00;101904.78;5138020;27;20023;-84
2022/09/19 08:02:42;;;;;;;12.67;1.53;;;;;;;12.26;100.00;101915.31;5138037;27;20458;-85
2022/09/19 08:05:08;;;;;;;10.82;1.45;;;;;;;12.28;100.00;101911.34;5137993;27;20083;-85
2022/09/19 08:07:36;;;;;;;9.90;1.40;;;;;;;12.33;100.00;101910.75;5138486;27;20361;-85
2022/09/19 08:10:02;;;;;;;15.25;2.13;;;;;;;12.34;100.00;101923.31;5103504;27;20027;-85
2022/09/19 08:12:28;;;;;;;8.75;1.60;;;;;;;12.45;100.00;101917.28;5138217;27;20031;-85
2022/09/19 08:14:55;;;;;;;12.10;1.47;;;;;;;12.60;100.00;101929.94;5156265;27;20023;-85
2022/09/19 08:17:21;;;;;;;17.15;2.00;;;;;;;12.63;98.53;101922.19;5137528;27;20026;-85
2022/09/19 08:19:50;;;;;;;14.68;2.10;;;;;;;12.71;98.87;101926.63;5137833;27;20453;-85
2022/09/19 08:22:16;;;;;;;17.52;1.95;;;;;;;12.84;95.99;101928.56;5120400;27;20034;-85
2022/09/19 08:24:41;;;;;;;11.33;1.90;;;;;;;12.92;97.78;101933.00;5120402;27;20533;-83
2022/09/19 08:27:07;;;;;;;15.13;2.30;;;;;;;13.15;98.16;101938.94;5120234;27;20114;-83
2022/09/19 08:29:32;;;;;;;11.97;2.20;;;;;;;13.15;94.30;101933.47;5120394;27;20276;-83
2022/09/19 08:32:00;;;;;;;7.90;1.73;;;;;;;13.15;95.43;101936.22;5138221;27;20035;-83
2022/09/19 08:34:25;;;;;;;9.95;1.52;;;;;;;13.32;96.00;101938.53;5155790;27;20034;-85
2022/09/19 08:36:53;;;;;;;14.53;2.50;;;;;;;13.45;93.05;101935.88;5137300;27;20386;-85
2022/09/19 08:39:18;;;;;;;11.18;1.50;;;;;;;13.47;93.80;101933.75;5137462;27;20023;-85
2022/09/19 08:41:55;;;;;;;12.37;1.70;;;;;;;13.41;92.92;101950.13;5137193;27;20034;-84
2022/09/19 08:45:02;;;;;;;8.38;1.77;;;;;;;13.28;92.36;101948.16;5137046;27;20046;-85
2022/09/19 08:47:32;;;;;;;13.50;2.00;;;;;;;13.23;94.55;101942.50;5125761;27;20066;-85
2022/09/19 08:50:06;;;;;;;10.13;1.80;;;;;;;13.22;93.93;101947.09;5155418;27;20029;-85
2022/09/19 08:52:45;;;;;;;11.35;1.48;;;;;;;13.10;92.71;101949.59;5137487;27;20355;-85
2022/09/19 08:55:26;;;;;;;10.17;1.93;;;;;;;12.94;93.00;101947.25;5137206;27;20038;-86
2022/09/19 08:58:03;;;;;;;14.75;1.10;;;;;;;12.88;91.18;101940.72;5136942;27;20038;-86
2022/09/19 09:00:41;;;;;;;9.75;1.75;;;;;;;12.82;93.88;101941.53;5155412;27;20030;-85
2022/09/19 09:03:14;;;;;;;12.02;1.67;;;;;;;12.81;93.34;101934.41;5136964;27;20122;-84
2022/09/19 09:05:45;;;;;;;6.63;1.10;;;;;;;12.81;92.69;101948.03;5155441;27;20030;-84
2022/09/19 09:08:31;;;;;;;9.90;1.27;;;;;;;12.83;93.86;101935.06;5156047;27;20083;-84
2022/09/19 09:11:24;;;;;;;17.75;1.85;;;;;;;12.89;93.85;101931.53;5136946;27;20385;-83
2022/09/19 09:13:55;;;;;;;15.63;1.58;;;;;;;12.89;91.19;101938.81;5136998;27;20034;-85
2022/09/19 09:16:24;;;;;;;9.73;1.40;;;;;;;12.93;92.65;101940.97;5136648;27;20062;-83
2022/09/19 09:19:22;;;;;;;11.07;1.70;;;;;;;12.91;92.47;101936.75;5136581;27;20026;-84
2022/09/19 09:22:02;;;;;;;11.53;1.73;;;;;;;12.96;92.99;101928.78;5137421;27;20481;-83
2022/09/19 09:24:33;;;;;;;11.43;1.30;;;;;;;13.15;93.59;101932.63;5136929;27;20031;-84
2022/09/19 09:27:01;;;;;;;11.85;1.27;;;;;;;13.32;91.28;101944.00;5155729;27;20056;-85
2022/09/19 09:29:35;;;;;;;9.65;1.70;;;;;;;13.38;90.96;101931.47;5137102;27;20026;-84
2022/09/19 09:32:14;;;;;;;9.45;1.33;;;;;;;13.40;89.68;101932.91;5136881;27;20142;-85
2022/09/19 09:34:44;;;;;;;13.83;1.63;;;;;;;13.47;89.46;101933.75;5136921;27;20028;-85
2022/09/19 09:37:12;;;;;;;10.32;1.23;;;;;;;13.57;86.68;101937.94;5137055;27;20030;-84
2022/09/19 09:40:08;;;;;;;8.52;1.10;;;;;;;13.67;87.78;101936.50;5140507;27;20465;-85
2022/09/19 09:42:50;;;;;;;10.30;1.55;;;;;;;13.95;88.98;101953.69;5140739;27;20027;-84
2022/09/19 09:45:35;;;;;;;9.95;1.15;;;;;;;14.21;85.96;101941.91;5140481;27;20049;-85
2022/09/19 09:48:25;;;;;;;16.03;1.70;;;;;;;14.40;81.68;101942.91;5140635;27;20376;-85
2022/09/19 09:51:09;;;;;;;9.10;1.30;;;;;;;14.55;81.22;101948.13;5140344;27;20035;-85
2022/09/19 09:53:50;;;;;;;15.38;2.03;;;;;;;14.98;83.07;101944.81;5159311;27;20049;-84
2022/09/19 09:56:49;;;;;;;8.80;1.65;;;;;;;15.30;81.57;101949.50;5140144;27;20031;-85
2022/09/19 10:05:38;;;;;;;7.25;1.05;;;;;;;16.00;73.49;101943.06;5158590;27;20034;-85
2022/09/19 10:08:28;;;;;;;10.45;1.67;;;;;;;15.81;74.50;101936.72;5140179;27;20075;-85
2022/09/19 10:11:20;;;;;;;7.35;1.02;;;;;;;15.66;73.73;101934.28;5140045;27;20019;-84
2022/09/19 10:13:53;;;;;;;8.18;1.02;;;;;;;15.71;72.13;101940.75;5140304;27;20026;-85
2022/09/19 10:16:21;;;;;;;5.93;1.43;;;;;;;15.86;71.24;101945.09;5140293;27;20101;-85
2022/09/19 10:19:04;;;;;;;8.20;1.42;;;;;;;16.02;72.24;101947.25;5139552;27;20458;-84
2022/09/19 10:21:30;;;;;;;9.50;1.20;;;;;;;16.29;68.47;101945.06;5139741;27;20037;-84
2022/09/19 10:23:56;;;;;;;4.00;0.80;;;;;;;16.45;68.13;101937.34;5122560;27;20031;-84
2022/09/19 10:26:27;;;;;;;5.25;0.90;;;;;;;16.66;67.88;101949.72;5157860;27;20076;-84
2022/09/19 10:29:02;;;;;;;15.23;1.10;;;;;;;16.77;67.38;101943.50;5139680;27;20114;-85
2022/09/19 10:31:47;;;;;;;9.27;1.20;;;;;;;16.92;70.04;101940.38;5140688;27;20053;-84
2022/09/19 10:34:34;;;;;;;5.10;1.10;;;;;;;17.38;71.01;101953.63;5139282;27;20041;-84
2022/09/19 10:37:02;;;;;;;12.93;1.90;;;;;;;17.79;65.88;101941.81;5123993;27;20039;-85
2022/09/19 10:39:29;;;;;;;5.65;1.30;;;;;;;17.92;64.23;101945.41;5140460;27;20026;-84
2022/09/19 10:41:54;;;;;;;8.98;1.63;;;;;;;17.73;63.90;101951.00;5139752;27;20458;-84
2022/09/19 10:44:23;;;;;;;12.00;1.77;;;;;;;17.34;66.46;101956.03;5157566;27;20088;-85
2022/09/19 10:46:54;;;;;;;6.40;1.40;;;;;;;16.65;76.10;101962.59;5139266;27;20057;-86
2022/09/19 10:49:27;;;;;;;9.98;1.27;;;;;;;15.98;80.79;101956.16;5139435;27;20079;-85
2022/09/19 10:51:56;;;;;;;6.47;1.30;;;;;;;15.55;80.85;101955.81;5123065;27;20384;-85
2022/09/19 10:54:38;;;;;;;8.10;1.40;;;;;;;15.34;83.46;101948.81;5158090;27;20478;-85
2022/09/19 10:57:05;;;;;;;10.00;1.47;;;;;;;15.49;83.88;101947.69;5139429;27;20113;-85
2022/09/19 10:59:37;;;;;;;12.20;1.48;;;;;;;16.23;80.82;101942.44;5122450;27;20477;-85
2022/09/19 11:02:09;;;;;;;8.40;1.38;;;;;;;17.22;78.67;101938.69;5139068;27;20045;-85
2022/09/19 11:04:37;;;;;;;10.43;1.55;;;;;;;17.75;77.57;101942.53;5157327;27;20023;-86
2022/09/19 11:07:17;;;;;;;8.63;1.38;;;;;;;18.17;74.82;101934.19;5104856;27;20023;-85
2022/09/19 11:09:46;;;;;;;11.40;1.70;;;;;;;18.49;67.17;101940.13;5138942;27;20489;-86
2022/09/19 11:12:16;;;;;;;8.50;1.60;;;;;;;18.42;60.87;101944.91;5157577;27;20031;-85
2022/09/19 11:14:44;;;;;;;6.13;1.48;;;;;;;18.39;63.04;101940.75;5139016;27;20072;-85
2022/09/19 11:17:33;;;;;;;7.40;1.20;;;;;;;18.72;68.87;101950.22;5138788;27;20031;-85
2022/09/19 11:20:32;;;;;;;9.55;1.10;;;;;;;19.13;64.37;101941.97;5157471;27;20027;-84
2022/09/19 11:23:27;;;;;;;9.60;1.40;;;;;;;19.64;61.17;101937.34;5138258;27;20038;-85
2022/09/19 11:26:33;;;;;;;4.63;1.27;;;;;;;20.00;61.40;101934.34;5138591;27;20070;-85
2022/09/19 11:29:44;;;;;;;8.40;1.40;;;;;;;19.96;62.23;101934.03;5139011;27;20030;-84
2022/09/19 11:32:28;;;;;;;4.82;1.38;;;;;;;19.67;58.54;101927.78;5157422;27;20031;-85
2022/09/19 11:35:25;;;;;;;7.60;1.23;;;;;;;19.16;56.95;101930.47;5138221;27;20060;-85
2022/09/19 11:38:20;;;;;;;6.87;1.37;;;;;;;18.51;62.98;101942.63;5139028;27;20031;-86
2022/09/19 11:41:06;;;;;;;6.13;1.20;;;;;;;17.82;64.03;101943.22;5138592;27;20542;-86
2022/09/19 11:43:45;;;;;;;11.80;1.88;;;;;;;17.74;66.33;101947.16;5138659;27;20432;-85
2022/09/19 11:46:49;;;;;;;6.88;1.15;;;;;;;18.45;68.16;101940.84;5157181;27;20043;-85
2022/09/19 11:49:31;;;;;;;7.75;1.60;;;;;;;20.81;61.96;101939.31;5138237;27;20035;-85
2022/09/19 11:52:12;;;;;;;4.67;1.40;;;;;;;23.21;51.83;101931.28;5138181;27;20446;-85
2022/09/19 11:54:58;;;;;;;13.32;2.38;;;;;;;26.09;48.61;101924.53;5138264;27;20412;-85